Time,TemperatureF,DewpointF,PressureIn,WindDirection,WindDirectionDegrees,WindSpeedMPH,WindSpeedGustMPH,Humidity,HourlyPrecipIn,Conditions,Clouds,dailyrainin,SoftwareType,DateUTC
2013-01-24 00:09:00,22.5,18.0,25.34,West,280,0.0,6.0,82,0.00,,,0.00,weatherlink.com 1.10,2013-01-24 07:09:00,
2013-01-24 00:24:00,22.8,18.0,25.34,SE,124,3.0,4.0,82,0.00,,,0.00,weatherlink.com 1.10,2013-01-24 07:24:00,
2013-01-24 00:39:00,22.9,18.0,25.36,NNW,344,1.0,2.0,81,0.00,,,0.00,weatherlink.com 1.10,2013-01-24 07:39:00,
2013-01-24 00:54:00,23.0,18.0,25.35,NE,44,1.0,6.0,82,0.00,,,0.00,weatherlink.com 1.10,2013-01-24 07:54:00,
2013-01-24 01:09:00,22.6,18.0,25.34,SSW,205,3.0,6.0,82,0.00,,,0.00,weatherlink.com 1.10,2013-01-24 08:09:00,
2013-01-24 01:24:00,22.8,18.0,25.33,SSW,198,4.0,5.0,83,0.00,,,0.00,weatherlink.com 1.10,2013-01-24 08:24:00,
2013-01-24 01:39:00,22.8,19.0,25.33,SW,231,5.0,7.0,84,0.00,,,0.00,weatherlink.com 1.10,2013-01-24 08:39:00,
2013-01-24 01:54:00,23.2,19.0,25.32,SW,229,8.0,10.0,84,0.00,,,0.00,weatherlink.com 1.10,2013-01-24 08:54:00,
2013-01-24 02:09:00,23.4,19.0,25.32,ESE,114,4.0,11.0,84,0.00,,,0.00,weatherlink.com 1.10,2013-01-24 09:09:00,
2013-01-24 02:24:00,22.8,19.0,25.30,SW,225,4.0,11.0,84,0.00,,,0.00,weatherlink.com 1.10,2013-01-24 09:24:00,
2013-01-24 02:39:00,22.5,19.0,25.31,SSW,205,7.0,14.0,85,0.00,,,0.00,weatherlink.com 1.10,2013-01-24 09:39:00,
2013-01-24 02:54:00,22.5,19.0,25.30,ESE,111,0.0,5.0,85,0.00,,,0.00,weatherlink.com 1.10,2013-01-24 09:54:00,
2013-01-24 03:09:00,22.8,19.0,25.30,NNE,33,3.0,4.0,85,0.00,,,0.00,weatherlink.com 1.10,2013-01-24 10:09:00,
2013-01-24 03:24:00,23.2,19.0,25.30,NE,47,1.0,4.0,85,0.00,,,0.00,weatherlink.com 1.10,2013-01-24 10:24:00,
2013-01-24 03:40:00,23.0,19.0,25.29,WSW,238,3.0,9.0,85,0.00,,,0.00,weatherlink.com 1.10,2013-01-24 10:40:00,
2013-01-24 03:55:00,22.7,19.0,25.28,SE,129,2.0,4.0,85,0.00,,,0.00,weatherlink.com 1.10,2013-01-24 10:55:00,
2013-01-24 04:10:00,22.3,19.0,25.28,SSE,159,1.0,8.0,86,0.00,,,0.00,weatherlink.com 1.10,2013-01-24 11:10:00,
2013-01-24 04:25:00,22.5,19.0,25.27,NNE,26,2.0,6.0,86,0.00,,,0.00,weatherlink.com 1.10,2013-01-24 11:25:00,
2013-01-24 04:40:00,22.5,19.0,25.27,WSW,258,1.0,1.0,87,0.00,,,0.00,weatherlink.com 1.10,2013-01-24 11:40:00,
2013-01-24 04:55:00,23.2,19.0,25.27,WSW,245,0.0,7.0,85,0.00,,,0.00,weatherlink.com 1.10,2013-01-24 11:55:00,
2013-01-24 05:10:00,23.5,20.0,25.27,SW,227,1.0,7.0,85,0.00,,,0.00,weatherlink.com 1.10,2013-01-24 12:10:00,
2013-01-24 05:25:00,24.0,20.0,25.25,West,270,2.0,4.0,83,0.00,,,0.00,weatherlink.com 1.10,2013-01-24 12:25:00,
2013-01-24 05:40:00,24.6,20.0,25.25,NE,50,1.0,4.0,81,0.00,,,0.00,weatherlink.com 1.10,2013-01-24 12:40:00,
2013-01-24 05:55:00,25.0,20.0,25.24,NNW,330,2.0,3.0,80,0.00,,,0.00,weatherlink.com 1.10,2013-01-24 12:55:00,
2013-01-24 06:10:00,26.1,20.0,25.24,West,271,0.0,6.0,78,0.00,,,0.00,weatherlink.com 1.10,2013-01-24 13:10:00,
2013-01-24 06:25:00,23.7,19.0,25.25,NE,53,0.0,3.0,82,0.00,,,0.00,weatherlink.com 1.10,2013-01-24 13:25:00,
2013-01-24 06:40:00,23.6,19.0,25.23,NE,44,0.0,1.0,83,0.00,,,0.00,weatherlink.com 1.10,2013-01-24 13:40:00,
2013-01-24 06:55:00,23.9,19.0,25.24,NE,43,0.0,5.0,81,0.00,,,0.00,weatherlink.com 1.10,2013-01-24 13:55:00,
2013-01-24 07:10:00,24.3,19.0,25.24,NE,42,1.0,3.0,81,0.00,,,0.00,weatherlink.com 1.10,2013-01-24 14:10:00,
2013-01-24 07:25:00,24.7,20.0,25.23,East,94,1.0,1.0,82,0.00,,,0.00,weatherlink.com 1.10,2013-01-24 14:25:00,
2013-01-24 07:40:00,26.6,20.0,25.22,ESE,107,0.0,1.0,77,0.00,,,0.00,weatherlink.com 1.10,2013-01-24 14:40:00,
2013-01-24 07:55:00,27.7,21.0,25.23,SE,126,1.0,1.0,76,0.00,,,0.00,weatherlink.com 1.10,2013-01-24 14:55:00,
2013-01-24 08:10:00,29.2,21.0,25.23,ESE,119,1.0,3.0,71,0.00,,,0.00,weatherlink.com 1.10,2013-01-24 15:10:00,
2013-01-24 08:25:00,39.6,17.0,25.23,NW,311,4.0,8.0,40,0.00,,,0.00,weatherlink.com 1.10,2013-01-24 15:25:00,
2013-01-24 08:40:00,52.5,11.0,25.23,WNW,285,11.0,25.0,19,0.00,,,0.00,weatherlink.com 1.10,2013-01-24 15:40:00,
2013-01-24 08:55:00,53.6,11.0,25.23,West,259,9.0,23.0,18,0.00,,,0.00,weatherlink.com 1.10,2013-01-24 15:55:00,
2013-01-24 09:10:00,53.5,9.0,25.25,West,280,10.0,21.0,17,0.00,,,0.00,weatherlink.com 1.10,2013-01-24 16:10:00,
2013-01-24 09:25:00,53.0,10.0,25.25,West,276,9.0,14.0,18,0.00,,,0.00,weatherlink.com 1.10,2013-01-24 16:25:00,
2013-01-24 09:40:00,52.9,10.0,25.25,WNW,302,11.0,14.0,18,0.00,,,0.00,weatherlink.com 1.10,2013-01-24 16:40:00,
2013-01-24 09:55:00,53.4,12.0,25.25,WNW,284,7.0,14.0,19,0.00,,,0.00,weatherlink.com 1.10,2013-01-24 16:55:00,
2013-01-24 10:10:00,53.9,12.0,25.24,WNW,290,8.0,13.0,19,0.00,,,0.00,weatherlink.com 1.10,2013-01-24 17:10:00,
2013-01-24 10:25:00,54.2,13.0,25.24,NW,310,4.0,13.0,19,0.00,,,0.00,weatherlink.com 1.10,2013-01-24 17:25:00,
2013-01-24 10:40:00,54.8,13.0,25.23,WNW,287,10.0,14.0,19,0.00,,,0.00,weatherlink.com 1.10,2013-01-24 17:40:00,
2013-01-24 10:56:00,56.1,10.0,25.23,West,269,10.0,17.0,16,0.00,,,0.00,weatherlink.com 1.10,2013-01-24 17:56:00,
2013-01-24 11:11:00,56.6,11.0,25.22,WSW,257,9.0,19.0,16,0.00,,,0.00,weatherlink.com 1.10,2013-01-24 18:11:00,
2013-01-24 11:26:00,56.8,11.0,25.20,WSW,257,12.0,18.0,16,0.00,,,0.00,weatherlink.com 1.10,2013-01-24 18:26:00,
2013-01-24 11:41:00,57.3,13.0,25.17,WSW,246,22.0,22.0,17,0.00,,,0.00,weatherlink.com 1.10,2013-01-24 18:41:00,
2013-01-24 11:56:00,58.1,12.0,25.18,WNW,291,7.0,22.0,16,0.00,,,0.00,weatherlink.com 1.10,2013-01-24 18:56:00,
2013-01-24 12:11:00,58.2,12.0,25.19,NW,307,6.0,13.0,16,0.00,,,0.00,weatherlink.com 1.10,2013-01-24 19:11:00,
2013-01-24 12:26:00,58.6,12.0,25.18,West,269,4.0,12.0,16,0.00,,,0.00,weatherlink.com 1.10,2013-01-24 19:26:00,
2013-01-24 12:41:00,61.4,13.0,25.17,West,279,9.0,17.0,15,0.00,,,0.00,weatherlink.com 1.10,2013-01-24 19:41:00,
2013-01-24 12:56:00,62.1,14.0,25.17,NW,315,10.0,16.0,15,0.00,,,0.00,weatherlink.com 1.10,2013-01-24 19:56:00,
2013-01-24 13:11:00,61.3,15.0,25.17,NNW,339,11.0,13.0,16,0.00,,,0.00,weatherlink.com 1.10,2013-01-24 20:11:00,
2013-01-24 13:27:00,62.0,14.0,25.16,NW,317,4.0,14.0,15,0.00,,,0.00,weatherlink.com 1.10,2013-01-24 20:27:00,
2013-01-24 13:41:00,61.8,13.0,25.16,NNE,33,5.0,12.0,15,0.00,,,0.00,weatherlink.com 1.10,2013-01-24 20:41:00,
2013-01-24 13:56:00,62.9,16.0,25.15,NW,320,12.0,15.0,16,0.00,,,0.00,weatherlink.com 1.10,2013-01-24 20:56:00,
2013-01-24 14:11:00,63.5,18.0,25.15,WNW,300,9.0,16.0,17,0.00,,,0.00,weatherlink.com 1.10,2013-01-24 21:11:00,
2013-01-24 14:26:00,62.2,19.0,25.15,WNW,302,8.0,20.0,19,0.00,,,0.00,weatherlink.com 1.10,2013-01-24 21:26:00,
2013-01-24 14:41:00,62.5,21.0,25.15,NW,314,9.0,21.0,20,0.00,,,0.00,weatherlink.com 1.10,2013-01-24 21:41:00,
2013-01-24 14:56:00,61.9,24.0,25.16,West,277,13.0,24.0,23,0.00,,,0.00,weatherlink.com 1.10,2013-01-24 21:56:00,
2013-01-24 15:11:00,61.1,23.0,25.17,NNW,330,10.0,20.0,23,0.00,,,0.00,weatherlink.com 1.10,2013-01-24 22:11:00,
2013-01-24 15:26:00,59.7,22.0,25.17,NNW,338,12.0,20.0,23,0.00,,,0.00,weatherlink.com 1.10,2013-01-24 22:26:00,
2013-01-24 15:41:00,59.0,26.0,25.17,NW,319,13.0,19.0,28,0.00,,,0.00,weatherlink.com 1.10,2013-01-24 22:41:00,
2013-01-24 15:56:00,58.2,26.0,25.18,NNW,328,8.0,23.0,29,0.00,,,0.00,weatherlink.com 1.10,2013-01-24 22:56:00,
2013-01-24 16:11:00,57.6,25.0,25.19,NW,311,10.0,23.0,29,0.00,,,0.00,weatherlink.com 1.10,2013-01-24 23:11:00,
2013-01-24 16:26:00,56.8,26.0,25.19,NW,325,6.0,15.0,30,0.00,,,0.00,weatherlink.com 1.10,2013-01-24 23:26:00,
2013-01-24 16:41:00,56.5,27.0,25.20,WNW,302,16.0,22.0,32,0.00,,,0.00,weatherlink.com 1.10,2013-01-24 23:41:00,
2013-01-24 16:56:00,56.1,26.0,25.20,NNW,337,12.0,21.0,32,0.00,,,0.00,weatherlink.com 1.10,2013-01-24 23:56:00,
2013-01-24 17:11:00,54.6,27.0,25.22,NNW,332,9.0,13.0,35,0.00,,,0.00,weatherlink.com 1.10,2013-01-25 00:11:00,
2013-01-24 17:26:00,53.6,28.0,25.23,NNW,345,9.0,14.0,37,0.00,,,0.00,weatherlink.com 1.10,2013-01-25 00:26:00,
2013-01-24 17:41:00,53.5,28.0,25.23,NW,319,12.0,13.0,37,0.00,,,0.00,weatherlink.com 1.10,2013-01-25 00:41:00,
2013-01-24 17:56:00,53.7,28.0,25.24,NNW,335,13.0,20.0,37,0.00,,,0.00,weatherlink.com 1.10,2013-01-25 00:56:00,
2013-01-24 18:11:00,53.5,28.0,25.25,NNW,333,11.0,32.0,38,0.00,,,0.00,weatherlink.com 1.10,2013-01-25 01:11:00,
2013-01-24 18:26:00,52.6,28.0,25.25,NW,319,8.0,18.0,39,0.00,,,0.00,weatherlink.com 1.10,2013-01-25 01:26:00,
2013-01-24 18:41:00,51.9,29.0,25.25,NW,321,13.0,19.0,41,0.00,,,0.00,weatherlink.com 1.10,2013-01-25 01:41:00,
2013-01-24 18:56:00,51.2,29.0,25.26,NNW,328,10.0,17.0,42,0.00,,,0.00,weatherlink.com 1.10,2013-01-25 01:56:00,
2013-01-24 19:11:00,50.3,29.0,25.27,NNW,341,10.0,13.0,44,0.00,,,0.00,weatherlink.com 1.10,2013-01-25 02:11:00,
2013-01-24 19:26:00,49.5,29.0,25.27,NW,317,7.0,15.0,46,0.00,,,0.00,weatherlink.com 1.10,2013-01-25 02:26:00,
2013-01-24 19:41:00,49.4,29.0,25.27,NW,322,6.0,19.0,46,0.00,,,0.00,weatherlink.com 1.10,2013-01-25 02:41:00,
2013-01-24 19:56:00,48.3,29.0,25.28,NNW,335,5.0,12.0,48,0.00,,,0.00,weatherlink.com 1.10,2013-01-25 02:56:00,
2013-01-24 20:11:00,48.0,29.0,25.28,NNW,342,6.0,14.0,48,0.00,,,0.00,weatherlink.com 1.10,2013-01-25 03:11:00,
2013-01-24 20:26:00,48.1,29.0,25.27,NNW,327,10.0,22.0,47,0.00,,,0.00,weatherlink.com 1.10,2013-01-25 03:26:00,
2013-01-24 20:41:00,47.9,28.0,25.28,North,1,12.0,23.0,47,0.00,,,0.00,weatherlink.com 1.10,2013-01-25 03:41:00,
2013-01-24 20:56:00,47.8,29.0,25.28,NNW,334,8.0,20.0,48,0.00,,,0.00,weatherlink.com 1.10,2013-01-25 03:56:00,
2013-01-24 21:11:00,46.9,29.0,25.29,NW,323,12.0,20.0,50,0.00,,,0.00,weatherlink.com 1.10,2013-01-25 04:11:00,
2013-01-24 21:27:00,46.9,29.0,25.30,NW,326,13.0,19.0,50,0.00,,,0.00,weatherlink.com 1.10,2013-01-25 04:27:00,
2013-01-24 21:42:00,46.0,29.0,25.30,NNW,330,12.0,23.0,51,0.00,,,0.00,weatherlink.com 1.10,2013-01-25 04:42:00,
2013-01-24 21:57:00,45.0,29.0,25.30,NNW,341,10.0,17.0,53,0.00,,,0.00,weatherlink.com 1.10,2013-01-25 04:57:00,
2013-01-24 22:12:00,44.0,29.0,25.31,NNW,343,12.0,16.0,55,0.00,,,0.00,weatherlink.com 1.10,2013-01-25 05:12:00,
2013-01-24 22:27:00,41.6,28.0,25.31,NW,325,5.0,11.0,59,0.00,,,0.00,weatherlink.com 1.10,2013-01-25 05:27:00,
2013-01-24 22:42:00,40.8,28.0,25.32,NNE,15,3.0,7.0,61,0.00,,,0.00,weatherlink.com 1.10,2013-01-25 05:42:00,
2013-01-24 22:57:00,40.3,28.0,25.32,NNW,341,3.0,8.0,62,0.00,,,0.00,weatherlink.com 1.10,2013-01-25 05:57:00,
2013-01-24 23:12:00,38.1,28.0,25.32,NNW,338,3.0,8.0,66,0.00,,,0.00,weatherlink.com 1.10,2013-01-25 06:12:00,
2013-01-24 23:27:00,38.7,28.0,25.32,NNW,335,4.0,10.0,66,0.00,,,0.00,weatherlink.com 1.10,2013-01-25 06:27:00,
2013-01-24 23:42:00,36.3,27.0,25.32,North,356,3.0,5.0,68,0.00,,,0.00,weatherlink.com 1.10,2013-01-25 06:42:00,
2013-01-24 23:57:00,36.4,28.0,25.33,NW,323,2.0,6.0,71,0.00,,,0.00,weatherlink.com 1.10,2013-01-25 06:57:00,